sensor_id;sensor_type;location;lat;lon;timestamp;temperature;humidity
19567;DHT22;9930;49.240;8.548;2023-04-24T00:00:20;15.90;68.30
19567;DHT22;9930;49.240;8.548;2023-04-24T00:02:50;15.90;68.30
19567;DHT22;9930;49.240;8.548;2023-04-24T00:05:17;15.80;68.30
19567;DHT22;9930;49.240;8.548;2023-04-24T00:07:45;15.80;68.30
19567;DHT22;9930;49.240;8.548;2023-04-24T00:10:11;15.70;68.40
19567;DHT22;9930;49.240;8.548;2023-04-24T00:12:38;15.70;68.60
19567;DHT22;9930;49.240;8.548;2023-04-24T00:15:04;15.70;68.70
19567;DHT22;9930;49.240;8.548;2023-04-24T00:17:31;15.70;68.80
19567;DHT22;9930;49.240;8.548;2023-04-24T00:19:57;15.70;69.00
19567;DHT22;9930;49.240;8.548;2023-04-24T00:22:27;15.70;69.00
19567;DHT22;9930;49.240;8.548;2023-04-24T00:24:53;15.70;69.00
19567;DHT22;9930;49.240;8.548;2023-04-24T00:27:22;15.70;69.00
19567;DHT22;9930;49.240;8.548;2023-04-24T00:29:51;15.60;69.00
19567;DHT22;9930;49.240;8.548;2023-04-24T00:32:19;15.60;69.00
19567;DHT22;9930;49.240;8.548;2023-04-24T00:34:50;15.60;69.10
19567;DHT22;9930;49.240;8.548;2023-04-24T00:37:15;15.60;69.10
19567;DHT22;9930;49.240;8.548;2023-04-24T00:39:47;15.60;69.20
19567;DHT22;9930;49.240;8.548;2023-04-24T00:42:13;15.60;69.30
19567;DHT22;9930;49.240;8.548;2023-04-24T00:44:43;15.60;69.30
19567;DHT22;9930;49.240;8.548;2023-04-24T00:47:11;15.60;69.30
19567;DHT22;9930;49.240;8.548;2023-04-24T00:49:39;15.60;69.30
19567;DHT22;9930;49.240;8.548;2023-04-24T00:52:07;15.60;69.20
19567;DHT22;9930;49.240;8.548;2023-04-24T00:54:35;15.60;69.30
19567;DHT22;9930;49.240;8.548;2023-04-24T00:57:04;15.60;69.30
19567;DHT22;9930;49.240;8.548;2023-04-24T00:59:30;15.50;69.30
19567;DHT22;9930;49.240;8.548;2023-04-24T01:01:57;15.50;69.30
19567;DHT22;9930;49.240;8.548;2023-04-24T01:04:24;15.50;69.50
19567;DHT22;9930;49.240;8.548;2023-04-24T01:06:55;15.50;69.60
19567;DHT22;9930;49.240;8.548;2023-04-24T01:09:25;15.50;69.70
19567;DHT22;9930;49.240;8.548;2023-04-24T01:11:56;15.40;69.80
19567;DHT22;9930;49.240;8.548;2023-04-24T01:14:22;15.40;69.90
19567;DHT22;9930;49.240;8.548;2023-04-24T01:16:48;15.50;70.00
19567;DHT22;9930;49.240;8.548;2023-04-24T01:19:15;15.50;70.00
19567;DHT22;9930;49.240;8.548;2023-04-24T01:21:47;15.50;70.10
19567;DHT22;9930;49.240;8.548;2023-04-24T01:24:16;15.50;70.10
19567;DHT22;9930;49.240;8.548;2023-04-24T01:26:45;15.50;70.10
19567;DHT22;9930;49.240;8.548;2023-04-24T01:29:13;15.50;70.00
19567;DHT22;9930;49.240;8.548;2023-04-24T01:31:41;15.50;69.90
19567;DHT22;9930;49.240;8.548;2023-04-24T01:34:08;15.40;69.90
19567;DHT22;9930;49.240;8.548;2023-04-24T01:36:35;15.40;69.90
19567;DHT22;9930;49.240;8.548;2023-04-24T01:39:03;15.40;69.90
19567;DHT22;9930;49.240;8.548;2023-04-24T01:41:29;15.40;70.10
19567;DHT22;9930;49.240;8.548;2023-04-24T01:43:58;15.40;70.20
19567;DHT22;9930;49.240;8.548;2023-04-24T01:46:26;15.40;70.40
19567;DHT22;9930;49.240;8.548;2023-04-24T01:48:52;15.30;70.40
19567;DHT22;9930;49.240;8.548;2023-04-24T01:51:18;15.40;70.50
19567;DHT22;9930;49.240;8.548;2023-04-24T01:53:44;15.40;70.50
19567;DHT22;9930;49.240;8.548;2023-04-24T01:56:14;15.40;70.50
19567;DHT22;9930;49.240;8.548;2023-04-24T01:58:41;15.40;70.50
19567;DHT22;9930;49.240;8.548;2023-04-24T02:01:07;15.40;70.50
19567;DHT22;9930;49.240;8.548;2023-04-24T02:03:35;15.40;70.50
19567;DHT22;9930;49.240;8.548;2023-04-24T02:06:00;15.40;70.50
19567;DHT22;9930;49.240;8.548;2023-04-24T02:08:31;15.40;70.50
19567;DHT22;9930;49.240;8.548;2023-04-24T02:10:57;15.40;70.50
19567;DHT22;9930;49.240;8.548;2023-04-24T02:13:26;15.30;70.40
19567;DHT22;9930;49.240;8.548;2023-04-24T02:15:52;15.30;70.40
19567;DHT22;9930;49.240;8.548;2023-04-24T02:18:18;15.30;70.40
19567;DHT22;9930;49.240;8.548;2023-04-24T02:20:44;15.30;70.30
19567;DHT22;9930;49.240;8.548;2023-04-24T02:23:10;15.30;70.30
19567;DHT22;9930;49.240;8.548;2023-04-24T02:25:53;15.20;70.40
19567;DHT22;9930;49.240;8.548;2023-04-24T02:28:19;15.20;70.70
19567;DHT22;9930;49.240;8.548;2023-04-24T02:30:47;15.10;70.50
19567;DHT22;9930;49.240;8.548;2023-04-24T02:33:17;15.10;71.50
19567;DHT22;9930;49.240;8.548;2023-04-24T02:35:51;15.10;71.70
19567;DHT22;9930;49.240;8.548;2023-04-24T02:38:17;15.10;71.20
19567;DHT22;9930;49.240;8.548;2023-04-24T02:40:45;15.10;71.20
19567;DHT22;9930;49.240;8.548;2023-04-24T02:43:15;15.10;71.20
19567;DHT22;9930;49.240;8.548;2023-04-24T02:45:41;15.10;71.00
19567;DHT22;9930;49.240;8.548;2023-04-24T02:48:11;15.10;71.00
19567;DHT22;9930;49.240;8.548;2023-04-24T02:50:37;15.00;71.00
19567;DHT22;9930;49.240;8.548;2023-04-24T02:53:02;15.00;71.00
19567;DHT22;9930;49.240;8.548;2023-04-24T02:55:31;15.00;71.10
19567;DHT22;9930;49.240;8.548;2023-04-24T02:57:57;15.00;71.20
19567;DHT22;9930;49.240;8.548;2023-04-24T03:00:22;15.00;71.30
19567;DHT22;9930;49.240;8.548;2023-04-24T03:02:48;15.00;71.50
19567;DHT22;9930;49.240;8.548;2023-04-24T03:05:17;15.00;71.80
19567;DHT22;9930;49.240;8.548;2023-04-24T03:07:44;15.00;71.80
19567;DHT22;9930;49.240;8.548;2023-04-24T03:10:11;15.00;72.20
19567;DHT22;9930;49.240;8.548;2023-04-24T03:12:40;15.10;72.30
19567;DHT22;9930;49.240;8.548;2023-04-24T03:15:06;15.00;72.50
19567;DHT22;9930;49.240;8.548;2023-04-24T03:17:35;15.10;72.40
19567;DHT22;9930;49.240;8.548;2023-04-24T03:20:02;15.10;72.60
19567;DHT22;9930;49.240;8.548;2023-04-24T03:22:30;15.00;72.40
19567;DHT22;9930;49.240;8.548;2023-04-24T03:24:58;15.00;72.40
19567;DHT22;9930;49.240;8.548;2023-04-24T03:27:23;15.00;72.30
19567;DHT22;9930;49.240;8.548;2023-04-24T03:29:49;15.00;72.20
19567;DHT22;9930;49.240;8.548;2023-04-24T03:32:19;15.00;72.20
19567;DHT22;9930;49.240;8.548;2023-04-24T03:34:46;14.90;72.20
19567;DHT22;9930;49.240;8.548;2023-04-24T03:37:14;14.90;72.30
19567;DHT22;9930;49.240;8.548;2023-04-24T03:39:41;14.90;72.20
19567;DHT22;9930;49.240;8.548;2023-04-24T03:42:09;14.90;72.30
19567;DHT22;9930;49.240;8.548;2023-04-24T03:44:36;14.90;72.20
19567;DHT22;9930;49.240;8.548;2023-04-24T03:47:03;14.80;72.90
19567;DHT22;9930;49.240;8.548;2023-04-24T03:49:32;14.80;72.30
19567;DHT22;9930;49.240;8.548;2023-04-24T03:51:59;14.80;73.10
19567;DHT22;9930;49.240;8.548;2023-04-24T03:54:25;14.70;72.30
19567;DHT22;9930;49.240;8.548;2023-04-24T03:56:53;14.70;72.20
19567;DHT22;9930;49.240;8.548;2023-04-24T03:59:19;14.70;72.30
19567;DHT22;9930;49.240;8.548;2023-04-24T04:01:47;14.60;72.10
19567;DHT22;9930;49.240;8.548;2023-04-24T04:04:13;14.60;72.20
19567;DHT22;9930;49.240;8.548;2023-04-24T04:06:42;14.50;72.30
19567;DHT22;9930;49.240;8.548;2023-04-24T04:09:14;14.50;72.20
19567;DHT22;9930;49.240;8.548;2023-04-24T04:11:40;14.50;72.40
19567;DHT22;9930;49.240;8.548;2023-04-24T04:14:06;14.40;72.40
19567;DHT22;9930;49.240;8.548;2023-04-24T04:16:32;14.40;72.20
19567;DHT22;9930;49.240;8.548;2023-04-24T04:18:58;14.30;72.20
19567;DHT22;9930;49.240;8.548;2023-04-24T04:21:24;14.30;72.10
19567;DHT22;9930;49.240;8.548;2023-04-24T04:23:49;14.30;72.20
19567;DHT22;9930;49.240;8.548;2023-04-24T04:26:15;14.20;72.20
19567;DHT22;9930;49.240;8.548;2023-04-24T04:28:53;14.10;72.10
19567;DHT22;9930;49.240;8.548;2023-04-24T04:31:20;14.10;72.20
19567;DHT22;9930;49.240;8.548;2023-04-24T04:33:50;14.00;72.20
19567;DHT22;9930;49.240;8.548;2023-04-24T04:36:17;14.00;72.40
19567;DHT22;9930;49.240;8.548;2023-04-24T04:38:44;14.00;72.50
19567;DHT22;9930;49.240;8.548;2023-04-24T04:41:15;13.90;72.40
19567;DHT22;9930;49.240;8.548;2023-04-24T04:43:45;13.80;72.40
19567;DHT22;9930;49.240;8.548;2023-04-24T04:46:11;13.80;72.40
19567;DHT22;9930;49.240;8.548;2023-04-24T04:48:39;13.80;72.50
19567;DHT22;9930;49.240;8.548;2023-04-24T04:51:08;13.70;72.50
19567;DHT22;9930;49.240;8.548;2023-04-24T04:53:33;13.70;72.60
19567;DHT22;9930;49.240;8.548;2023-04-24T04:55:59;13.70;72.60
19567;DHT22;9930;49.240;8.548;2023-04-24T04:58:25;13.70;72.70
19567;DHT22;9930;49.240;8.548;2023-04-24T05:00:50;13.70;72.80
19567;DHT22;9930;49.240;8.548;2023-04-24T05:03:17;13.70;72.90
19567;DHT22;9930;49.240;8.548;2023-04-24T05:05:47;13.70;73.00
19567;DHT22;9930;49.240;8.548;2023-04-24T05:08:20;13.70;73.00
19567;DHT22;9930;49.240;8.548;2023-04-24T05:10:46;13.70;73.30
19567;DHT22;9930;49.240;8.548;2023-04-24T05:13:12;13.70;72.90
19567;DHT22;9930;49.240;8.548;2023-04-24T05:15:38;13.70;72.90
19567;DHT22;9930;49.240;8.548;2023-04-24T05:18:06;13.80;73.20
19567;DHT22;9930;49.240;8.548;2023-04-24T05:20:33;13.80;73.30
19567;DHT22;9930;49.240;8.548;2023-04-24T05:22:59;13.80;73.40
19567;DHT22;9930;49.240;8.548;2023-04-24T05:25:25;13.90;73.30
19567;DHT22;9930;49.240;8.548;2023-04-24T05:27:53;13.90;73.40
19567;DHT22;9930;49.240;8.548;2023-04-24T05:30:21;13.90;73.50
19567;DHT22;9930;49.240;8.548;2023-04-24T05:32:51;14.00;73.40
19567;DHT22;9930;49.240;8.548;2023-04-24T05:35:20;14.00;73.50
19567;DHT22;9930;49.240;8.548;2023-04-24T05:37:47;14.10;73.50
19567;DHT22;9930;49.240;8.548;2023-04-24T05:40:15;14.10;73.40
19567;DHT22;9930;49.240;8.548;2023-04-24T05:42:44;14.20;73.40
19567;DHT22;9930;49.240;8.548;2023-04-24T05:45:10;14.20;73.40
19567;DHT22;9930;49.240;8.548;2023-04-24T05:47:42;14.30;73.50
19567;DHT22;9930;49.240;8.548;2023-04-24T05:50:19;14.40;73.50
19567;DHT22;9930;49.240;8.548;2023-04-24T05:52:47;14.40;73.40
19567;DHT22;9930;49.240;8.548;2023-04-24T05:55:17;14.50;73.30
19567;DHT22;9930;49.240;8.548;2023-04-24T05:57:49;14.50;73.10
19567;DHT22;9930;49.240;8.548;2023-04-24T06:00:20;14.60;73.10
19567;DHT22;9930;49.240;8.548;2023-04-24T06:02:46;14.70;73.10
19567;DHT22;9930;49.240;8.548;2023-04-24T06:05:15;14.70;73.00
19567;DHT22;9930;49.240;8.548;2023-04-24T06:07:41;14.80;73.20
19567;DHT22;9930;49.240;8.548;2023-04-24T06:10:07;14.90;73.30
19567;DHT22;9930;49.240;8.548;2023-04-24T06:12:35;15.00;73.30
19567;DHT22;9930;49.240;8.548;2023-04-24T06:15:07;15.10;73.00
19567;DHT22;9930;49.240;8.548;2023-04-24T06:17:35;15.10;72.60
19567;DHT22;9930;49.240;8.548;2023-04-24T06:20:06;15.10;72.30
19567;DHT22;9930;49.240;8.548;2023-04-24T06:22:36;15.20;72.00
19567;DHT22;9930;49.240;8.548;2023-04-24T06:25:02;15.20;71.90
19567;DHT22;9930;49.240;8.548;2023-04-24T06:27:30;15.20;72.30
19567;DHT22;9930;49.240;8.548;2023-04-24T06:29:56;15.30;72.50
19567;DHT22;9930;49.240;8.548;2023-04-24T06:32:23;15.40;72.70
19567;DHT22;9930;49.240;8.548;2023-04-24T06:34:52;15.50;72.90
19567;DHT22;9930;49.240;8.548;2023-04-24T06:37:24;15.60;72.60
19567;DHT22;9930;49.240;8.548;2023-04-24T06:39:53;15.70;72.30
19567;DHT22;9930;49.240;8.548;2023-04-24T06:42:18;15.90;72.20
19567;DHT22;9930;49.240;8.548;2023-04-24T06:44:46;16.00;71.90
19567;DHT22;9930;49.240;8.548;2023-04-24T06:47:16;16.00;71.50
19567;DHT22;9930;49.240;8.548;2023-04-24T06:49:42;16.10;71.00
19567;DHT22;9930;49.240;8.548;2023-04-24T06:52:08;16.10;70.70
19567;DHT22;9930;49.240;8.548;2023-04-24T06:54:34;16.20;70.70
19567;DHT22;9930;49.240;8.548;2023-04-24T06:57:00;16.30;70.90
19567;DHT22;9930;49.240;8.548;2023-04-24T06:59:26;16.30;70.60
19567;DHT22;9930;49.240;8.548;2023-04-24T07:01:53;16.40;70.10
19567;DHT22;9930;49.240;8.548;2023-04-24T07:04:21;16.40;69.90
19567;DHT22;9930;49.240;8.548;2023-04-24T07:06:50;16.30;69.50
19567;DHT22;9930;49.240;8.548;2023-04-24T07:09:21;16.30;69.30
19567;DHT22;9930;49.240;8.548;2023-04-24T07:11:47;16.30;68.80
19567;DHT22;9930;49.240;8.548;2023-04-24T07:14:14;16.20;68.70
19567;DHT22;9930;49.240;8.548;2023-04-24T07:16:43;16.10;68.40
19567;DHT22;9930;49.240;8.548;2023-04-24T07:19:13;16.00;68.10
19567;DHT22;9930;49.240;8.548;2023-04-24T07:21:40;15.90;68.10
19567;DHT22;9930;49.240;8.548;2023-04-24T07:24:06;15.80;67.90
19567;DHT22;9930;49.240;8.548;2023-04-24T07:26:36;15.70;67.70
19567;DHT22;9930;49.240;8.548;2023-04-24T07:29:05;15.60;67.90
19567;DHT22;9930;49.240;8.548;2023-04-24T07:31:31;15.40;67.90
19567;DHT22;9930;49.240;8.548;2023-04-24T07:33:59;15.30;67.90
19567;DHT22;9930;49.240;8.548;2023-04-24T07:36:27;15.20;67.90
19567;DHT22;9930;49.240;8.548;2023-04-24T07:38:54;15.20;68.00
19567;DHT22;9930;49.240;8.548;2023-04-24T07:41:23;15.10;68.10
19567;DHT22;9930;49.240;8.548;2023-04-24T07:43:53;15.00;68.20
19567;DHT22;9930;49.240;8.548;2023-04-24T07:46:22;14.90;69.00
19567;DHT22;9930;49.240;8.548;2023-04-24T07:48:49;14.90;68.80
19567;DHT22;9930;49.240;8.548;2023-04-24T07:51:16;14.90;69.20
19567;DHT22;9930;49.240;8.548;2023-04-24T07:53:48;15.00;69.90
19567;DHT22;9930;49.240;8.548;2023-04-24T07:56:16;15.00;70.50
19567;DHT22;9930;49.240;8.548;2023-04-24T07:58:46;15.20;70.60
19567;DHT22;9930;49.240;8.548;2023-04-24T08:01:11;15.30;70.00
19567;DHT22;9930;49.240;8.548;2023-04-24T08:03:37;15.40;69.50
19567;DHT22;9930;49.240;8.548;2023-04-24T08:06:03;15.40;69.20
19567;DHT22;9930;49.240;8.548;2023-04-24T08:08:31;15.50;69.20
19567;DHT22;9930;49.240;8.548;2023-04-24T08:11:01;15.50;69.20
19567;DHT22;9930;49.240;8.548;2023-04-24T08:13:27;15.50;69.70
19567;DHT22;9930;49.240;8.548;2023-04-24T08:15:53;15.70;70.30
19567;DHT22;9930;49.240;8.548;2023-04-24T08:18:22;15.80;70.80
19567;DHT22;9930;49.240;8.548;2023-04-24T08:20:47;16.00;71.00
19567;DHT22;9930;49.240;8.548;2023-04-24T08:23:14;16.20;70.70
19567;DHT22;9930;49.240;8.548;2023-04-24T08:25:42;16.40;70.40
19567;DHT22;9930;49.240;8.548;2023-04-24T08:28:09;16.50;69.60
19567;DHT22;9930;49.240;8.548;2023-04-24T08:30:36;16.70;68.80
19567;DHT22;9930;49.240;8.548;2023-04-24T08:33:03;16.70;68.20
19567;DHT22;9930;49.240;8.548;2023-04-24T08:35:31;16.80;67.50
19567;DHT22;9930;49.240;8.548;2023-04-24T08:37:59;16.80;66.90
19567;DHT22;9930;49.240;8.548;2023-04-24T08:40:28;16.70;66.50
19567;DHT22;9930;49.240;8.548;2023-04-24T08:42:55;16.70;66.40
19567;DHT22;9930;49.240;8.548;2023-04-24T08:45:23;16.70;66.70
19567;DHT22;9930;49.240;8.548;2023-04-24T08:47:49;16.60;67.40
19567;DHT22;9930;49.240;8.548;2023-04-24T08:50:17;16.60;66.60
19567;DHT22;9930;49.240;8.548;2023-04-24T08:52:45;16.60;66.20
19567;DHT22;9930;49.240;8.548;2023-04-24T08:55:15;16.50;66.00
19567;DHT22;9930;49.240;8.548;2023-04-24T08:57:46;16.60;66.10
19567;DHT22;9930;49.240;8.548;2023-04-24T09:00:16;16.50;66.10
19567;DHT22;9930;49.240;8.548;2023-04-24T09:02:48;16.60;66.60
19567;DHT22;9930;49.240;8.548;2023-04-24T09:05:17;16.70;66.50
19567;DHT22;9930;49.240;8.548;2023-04-24T09:07:53;16.90;66.60
19567;DHT22;9930;49.240;8.548;2023-04-24T09:10:20;16.90;65.30
19567;DHT22;9930;49.240;8.548;2023-04-24T09:12:51;17.00;64.80
19567;DHT22;9930;49.240;8.548;2023-04-24T09:15:18;17.00;64.30
19567;DHT22;9930;49.240;8.548;2023-04-24T09:17:47;16.90;63.60
19567;DHT22;9930;49.240;8.548;2023-04-24T09:20:16;16.80;63.00
19567;DHT22;9930;49.240;8.548;2023-04-24T09:22:44;16.80;62.90
19567;DHT22;9930;49.240;8.548;2023-04-24T09:25:10;16.70;62.70
19567;DHT22;9930;49.240;8.548;2023-04-24T09:27:45;16.60;62.90
19567;DHT22;9930;49.240;8.548;2023-04-24T09:30:12;16.50;63.10
19567;DHT22;9930;49.240;8.548;2023-04-24T09:32:46;16.40;63.40
19567;DHT22;9930;49.240;8.548;2023-04-24T09:35:17;16.40;63.50
19567;DHT22;9930;49.240;8.548;2023-04-24T09:37:47;16.40;63.50
19567;DHT22;9930;49.240;8.548;2023-04-24T09:40:17;16.40;63.80
19567;DHT22;9930;49.240;8.548;2023-04-24T09:42:52;16.40;63.50
19567;DHT22;9930;49.240;8.548;2023-04-24T09:45:22;16.30;63.10
19567;DHT22;9930;49.240;8.548;2023-04-24T09:47:53;16.30;63.20
19567;DHT22;9930;49.240;8.548;2023-04-24T09:50:24;16.20;63.00
19567;DHT22;9930;49.240;8.548;2023-04-24T09:53:04;16.20;63.10
19567;DHT22;9930;49.240;8.548;2023-04-24T09:55:31;16.10;63.10
19567;DHT22;9930;49.240;8.548;2023-04-24T09:58:01;16.20;63.90
19567;DHT22;9930;49.240;8.548;2023-04-24T10:00:32;16.20;64.20
19567;DHT22;9930;49.240;8.548;2023-04-24T10:03:05;16.30;64.10
19567;DHT22;9930;49.240;8.548;2023-04-24T10:05:35;16.40;63.90
19567;DHT22;9930;49.240;8.548;2023-04-24T10:08:08;16.50;63.90
19567;DHT22;9930;49.240;8.548;2023-04-24T10:10:41;16.50;63.60
19567;DHT22;9930;49.240;8.548;2023-04-24T10:13:13;16.50;63.30
19567;DHT22;9930;49.240;8.548;2023-04-24T10:15:41;16.50;62.90
19567;DHT22;9930;49.240;8.548;2023-04-24T10:18:08;16.50;62.90
19567;DHT22;9930;49.240;8.548;2023-04-24T10:20:39;16.50;62.80
19567;DHT22;9930;49.240;8.548;2023-04-24T10:23:10;16.40;62.70
19567;DHT22;9930;49.240;8.548;2023-04-24T10:25:37;16.40;62.50
19567;DHT22;9930;49.240;8.548;2023-04-24T10:28:05;16.30;62.50
19567;DHT22;9930;49.240;8.548;2023-04-24T10:30:34;16.20;62.60
19567;DHT22;9930;49.240;8.548;2023-04-24T10:33:01;16.10;62.90
19567;DHT22;9930;49.240;8.548;2023-04-24T10:35:39;16.10;63.30
19567;DHT22;9930;49.240;8.548;2023-04-24T10:38:27;16.00;63.30
19567;DHT22;9930;49.240;8.548;2023-04-24T10:41:16;15.90;63.60
19567;DHT22;9930;49.240;8.548;2023-04-24T10:43:50;15.80;64.00
19567;DHT22;9930;49.240;8.548;2023-04-24T10:46:31;15.80;64.50
19567;DHT22;9930;49.240;8.548;2023-04-24T10:49:00;15.70;65.10
19567;DHT22;9930;49.240;8.548;2023-04-24T10:51:48;15.80;65.90
19567;DHT22;9930;49.240;8.548;2023-04-24T10:54:29;15.80;66.40
19567;DHT22;9930;49.240;8.548;2023-04-24T11:00:13;16.10;66.50
19567;DHT22;9930;49.240;8.548;2023-04-24T11:02:45;16.20;66.30
19567;DHT22;9930;49.240;8.548;2023-04-24T11:05:18;16.40;66.80
19567;DHT22;9930;49.240;8.548;2023-04-24T11:08:21;16.60;66.40
19567;DHT22;9930;49.240;8.548;2023-04-24T11:11:21;16.70;65.60
19567;DHT22;9930;49.240;8.548;2023-04-24T11:19:21;17.10;64.50
19567;DHT22;9930;49.240;8.548;2023-04-24T11:22:04;17.20;64.50
19567;DHT22;9930;49.240;8.548;2023-04-24T11:24:50;17.10;64.00
19567;DHT22;9930;49.240;8.548;2023-04-24T11:27:22;17.20;63.80
19567;DHT22;9930;49.240;8.548;2023-04-24T11:29:51;17.20;63.00
19567;DHT22;9930;49.240;8.548;2023-04-24T11:32:35;17.10;63.10
19567;DHT22;9930;49.240;8.548;2023-04-24T11:35:03;17.10;63.10
19567;DHT22;9930;49.240;8.548;2023-04-24T11:37:40;17.00;63.60
19567;DHT22;9930;49.240;8.548;2023-04-24T11:40:12;17.00;63.90
19567;DHT22;9930;49.240;8.548;2023-04-24T11:42:48;17.00;64.00
19567;DHT22;9930;49.240;8.548;2023-04-24T11:45:25;17.10;64.20
19567;DHT22;9930;49.240;8.548;2023-04-24T11:47:52;17.10;63.90
19567;DHT22;9930;49.240;8.548;2023-04-24T11:50:21;17.30;64.20
19567;DHT22;9930;49.240;8.548;2023-04-24T11:52:49;17.40;64.10
19567;DHT22;9930;49.240;8.548;2023-04-24T11:57:50;17.50;63.30
19567;DHT22;9930;49.240;8.548;2023-04-24T12:00:20;17.50;62.70
19567;DHT22;9930;49.240;8.548;2023-04-24T12:02:49;17.60;62.80
19567;DHT22;9930;49.240;8.548;2023-04-24T12:05:27;17.60;62.60
19567;DHT22;9930;49.240;8.548;2023-04-24T12:07:56;17.50;62.40
19567;DHT22;9930;49.240;8.548;2023-04-24T12:10:29;17.60;62.30
19567;DHT22;9930;49.240;8.548;2023-04-24T12:12:57;17.60;61.60
19567;DHT22;9930;49.240;8.548;2023-04-24T12:15:24;17.60;61.60
19567;DHT22;9930;49.240;8.548;2023-04-24T12:17:51;17.60;61.50
19567;DHT22;9930;49.240;8.548;2023-04-24T12:20:26;17.70;61.50
19567;DHT22;9930;49.240;8.548;2023-04-24T12:22:55;17.70;61.20
19567;DHT22;9930;49.240;8.548;2023-04-24T12:25:29;17.80;61.30
19567;DHT22;9930;49.240;8.548;2023-04-24T12:30:33;17.90;59.80
19567;DHT22;9930;49.240;8.548;2023-04-24T12:33:02;18.00;59.90
19567;DHT22;9930;49.240;8.548;2023-04-24T12:35:32;18.00;59.80
19567;DHT22;9930;49.240;8.548;2023-04-24T12:38:15;18.00;59.70
19567;DHT22;9930;49.240;8.548;2023-04-24T12:40:44;18.00;58.90
19567;DHT22;9930;49.240;8.548;2023-04-24T12:45:59;18.00;59.00
19567;DHT22;9930;49.240;8.548;2023-04-24T12:48:28;18.00;59.30
19567;DHT22;9930;49.240;8.548;2023-04-24T12:50:59;18.00;59.20
19567;DHT22;9930;49.240;8.548;2023-04-24T12:53:31;18.00;59.40
19567;DHT22;9930;49.240;8.548;2023-04-24T12:55:57;18.00;59.40
19567;DHT22;9930;49.240;8.548;2023-04-24T12:58:22;18.10;59.40
19567;DHT22;9930;49.240;8.548;2023-04-24T13:00:51;18.10;59.20
19567;DHT22;9930;49.240;8.548;2023-04-24T13:03:19;18.10;58.90
19567;DHT22;9930;49.240;8.548;2023-04-24T13:05:49;18.20;58.80
19567;DHT22;9930;49.240;8.548;2023-04-24T13:08:15;18.20;58.30
19567;DHT22;9930;49.240;8.548;2023-04-24T13:10:41;18.20;58.70
19567;DHT22;9930;49.240;8.548;2023-04-24T13:13:09;18.30;58.80
19567;DHT22;9930;49.240;8.548;2023-04-24T13:15:35;18.40;58.60
19567;DHT22;9930;49.240;8.548;2023-04-24T13:18:01;18.40;58.50
19567;DHT22;9930;49.240;8.548;2023-04-24T13:20:27;18.50;58.50
19567;DHT22;9930;49.240;8.548;2023-04-24T13:22:52;18.60;58.40
19567;DHT22;9930;49.240;8.548;2023-04-24T13:25:21;18.60;58.40
19567;DHT22;9930;49.240;8.548;2023-04-24T13:27:51;18.70;58.00
19567;DHT22;9930;49.240;8.548;2023-04-24T13:30:19;18.80;58.00
19567;DHT22;9930;49.240;8.548;2023-04-24T13:32:45;18.90;57.90
19567;DHT22;9930;49.240;8.548;2023-04-24T13:35:21;18.90;57.60
19567;DHT22;9930;49.240;8.548;2023-04-24T13:37:49;18.90;57.20
19567;DHT22;9930;49.240;8.548;2023-04-24T13:40:15;19.00;57.00
19567;DHT22;9930;49.240;8.548;2023-04-24T13:42:45;19.00;57.00
19567;DHT22;9930;49.240;8.548;2023-04-24T13:45:14;19.00;56.80
19567;DHT22;9930;49.240;8.548;2023-04-24T13:47:45;18.90;56.50
19567;DHT22;9930;49.240;8.548;2023-04-24T13:50:12;18.90;57.10
19567;DHT22;9930;49.240;8.548;2023-04-24T13:52:40;18.90;56.40
19567;DHT22;9930;49.240;8.548;2023-04-24T13:55:06;18.80;56.40
19567;DHT22;9930;49.240;8.548;2023-04-24T13:57:33;18.70;56.20
19567;DHT22;9930;49.240;8.548;2023-04-24T13:59:59;18.70;56.40
19567;DHT22;9930;49.240;8.548;2023-04-24T14:02:38;18.70;56.40
19567;DHT22;9930;49.240;8.548;2023-04-24T14:05:06;18.60;56.40
19567;DHT22;9930;49.240;8.548;2023-04-24T14:07:32;18.50;56.40
19567;DHT22;9930;49.240;8.548;2023-04-24T14:10:00;18.50;56.60
19567;DHT22;9930;49.240;8.548;2023-04-24T14:12:28;18.40;56.10
19567;DHT22;9930;49.240;8.548;2023-04-24T14:14:59;18.40;56.20
19567;DHT22;9930;49.240;8.548;2023-04-24T14:17:27;18.30;56.00
19567;DHT22;9930;49.240;8.548;2023-04-24T14:19:56;18.30;56.50
19567;DHT22;9930;49.240;8.548;2023-04-24T14:22:22;18.30;56.60
19567;DHT22;9930;49.240;8.548;2023-04-24T14:24:48;18.30;56.70
19567;DHT22;9930;49.240;8.548;2023-04-24T14:27:16;18.40;56.70
19567;DHT22;9930;49.240;8.548;2023-04-24T14:29:43;18.40;56.70
19567;DHT22;9930;49.240;8.548;2023-04-24T14:32:12;18.40;56.50
19567;DHT22;9930;49.240;8.548;2023-04-24T14:34:40;18.40;56.40
19567;DHT22;9930;49.240;8.548;2023-04-24T14:37:08;18.40;56.40
19567;DHT22;9930;49.240;8.548;2023-04-24T14:39:34;18.40;56.30
19567;DHT22;9930;49.240;8.548;2023-04-24T14:42:00;18.40;56.30
19567;DHT22;9930;49.240;8.548;2023-04-24T14:44:26;18.40;56.20
19567;DHT22;9930;49.240;8.548;2023-04-24T14:46:54;18.30;56.20
19567;DHT22;9930;49.240;8.548;2023-04-24T14:49:23;18.30;56.20
19567;DHT22;9930;49.240;8.548;2023-04-24T14:51:51;18.20;56.20
19567;DHT22;9930;49.240;8.548;2023-04-24T14:54:18;18.10;56.30
19567;DHT22;9930;49.240;8.548;2023-04-24T14:56:48;18.10;56.30
19567;DHT22;9930;49.240;8.548;2023-04-24T14:59:16;18.00;56.40
19567;DHT22;9930;49.240;8.548;2023-04-24T15:01:44;17.90;56.70
19567;DHT22;9930;49.240;8.548;2023-04-24T15:04:13;17.80;56.90
19567;DHT22;9930;49.240;8.548;2023-04-24T15:06:43;17.80;57.20
19567;DHT22;9930;49.240;8.548;2023-04-24T15:09:10;17.70;57.40
19567;DHT22;9930;49.240;8.548;2023-04-24T15:11:36;17.70;57.50
19567;DHT22;9930;49.240;8.548;2023-04-24T15:14:05;17.60;57.80
19567;DHT22;9930;49.240;8.548;2023-04-24T15:16:34;17.50;58.10
19567;DHT22;9930;49.240;8.548;2023-04-24T15:19:02;17.50;58.50
19567;DHT22;9930;49.240;8.548;2023-04-24T15:21:27;17.50;58.70
19567;DHT22;9930;49.240;8.548;2023-04-24T15:23:53;17.40;58.90
19567;DHT22;9930;49.240;8.548;2023-04-24T15:26:19;17.40;59.00
19567;DHT22;9930;49.240;8.548;2023-04-24T15:28:50;17.30;59.00
19567;DHT22;9930;49.240;8.548;2023-04-24T15:31:18;17.30;59.40
19567;DHT22;9930;49.240;8.548;2023-04-24T15:33:44;17.20;59.60
19567;DHT22;9930;49.240;8.548;2023-04-24T15:36:11;17.10;59.70
19567;DHT22;9930;49.240;8.548;2023-04-24T15:38:37;17.10;60.10
19567;DHT22;9930;49.240;8.548;2023-04-24T15:41:03;17.00;60.30
19567;DHT22;9930;49.240;8.548;2023-04-24T15:43:31;17.00;60.40
19567;DHT22;9930;49.240;8.548;2023-04-24T15:46:00;16.90;60.80
19567;DHT22;9930;49.240;8.548;2023-04-24T15:48:29;16.90;61.10
19567;DHT22;9930;49.240;8.548;2023-04-24T15:50:59;16.80;61.20
19567;DHT22;9930;49.240;8.548;2023-04-24T15:53:26;16.80;61.30
19567;DHT22;9930;49.240;8.548;2023-04-24T15:55:54;16.80;61.50
19567;DHT22;9930;49.240;8.548;2023-04-24T15:58:22;16.70;61.50
19567;DHT22;9930;49.240;8.548;2023-04-24T16:00:48;16.70;61.70
19567;DHT22;9930;49.240;8.548;2023-04-24T16:03:16;16.60;61.50
19567;DHT22;9930;49.240;8.548;2023-04-24T16:05:42;16.60;61.40
19567;DHT22;9930;49.240;8.548;2023-04-24T16:08:07;16.50;61.50
19567;DHT22;9930;49.240;8.548;2023-04-24T16:10:34;16.50;61.70